createdAt,value
2018-01-30T00:00:22.265Z,0
2018-01-30T00:01:31.488Z,0
2018-01-30T00:02:40.185Z,0
2018-01-30T00:03:49.151Z,0
2018-01-30T00:04:58.646Z,0
2018-01-30T00:06:07.871Z,0
2018-01-30T00:07:16.567Z,0
2018-01-30T00:08:25.258Z,0
2018-01-30T00:09:34.486Z,0
2018-01-30T00:10:43.445Z,0
2018-01-30T00:11:52.397Z,0
2018-01-30T00:13:01.092Z,0
2018-01-30T00:14:09.787Z,0
2018-01-30T00:15:19.081Z,0
2018-01-30T00:16:28.045Z,0
2018-01-30T00:17:36.737Z,0
2018-01-30T00:18:45.432Z,0
2018-01-30T00:19:54.660Z,0
2018-01-30T00:21:03.618Z,0
2018-01-30T00:22:12.582Z,0
2018-01-30T00:23:21.539Z,0
2018-01-30T00:24:30.770Z,0
2018-01-30T00:25:39.465Z,0
2018-01-30T00:26:48.159Z,0
2018-01-30T00:27:57.122Z,0
2018-01-30T00:29:05.814Z,0
2018-01-30T00:30:14.777Z,0
2018-01-30T00:31:23.469Z,0
2018-01-30T00:32:32.158Z,0
2018-01-30T00:33:40.858Z,0
2018-01-30T00:34:50.085Z,0
2018-01-30T00:35:58.782Z,0
2018-01-30T00:37:07.735Z,0
2018-01-30T00:38:16.700Z,0
2018-01-30T00:39:26.191Z,0
2018-01-30T00:40:35.154Z,0
2018-01-30T00:41:44.373Z,0
2018-01-30T00:42:53.332Z,0
2018-01-30T00:44:02.023Z,0
2018-01-30T00:45:10.975Z,0
2018-01-30T00:46:19.671Z,0
2018-01-30T00:47:28.630Z,0
2018-01-30T00:48:37.862Z,0
2018-01-30T00:49:47.085Z,0
2018-01-30T00:50:56.581Z,0
2018-01-30T00:52:05.277Z,0
2018-01-30T00:53:14.507Z,0
2018-01-30T00:54:23.461Z,0
2018-01-30T00:55:32.421Z,0
2018-01-30T00:56:41.440Z,0
2018-01-30T00:57:50.400Z,0
2018-01-30T00:58:59.360Z,0
2018-01-30T01:00:08.591Z,0
2018-01-30T01:01:17.284Z,0
2018-01-30T01:02:25.974Z,0
2018-01-30T01:03:35.202Z,0
2018-01-30T01:04:43.892Z,0
2018-01-30T01:05:53.117Z,0
2018-01-30T01:07:01.808Z,0
2018-01-30T01:08:10.505Z,0
2018-01-30T01:09:19.468Z,0
2018-01-30T01:10:28.699Z,0
2018-01-30T01:11:37.388Z,0
2018-01-30T01:12:46.077Z,0
2018-01-30T01:13:55.036Z,0
2018-01-30T01:15:03.996Z,0
2018-01-30T01:16:12.953Z,0
2018-01-30T01:17:21.648Z,0
2018-01-30T01:18:30.340Z,0
2018-01-30T01:19:39.298Z,0
2018-01-30T01:20:48.781Z,0
2018-01-30T01:21:57.739Z,0
2018-01-30T01:23:07.233Z,0
2018-01-30T01:24:16.190Z,0
2018-01-30T01:25:24.884Z,0
2018-01-30T01:26:33.576Z,0
2018-01-30T01:27:42.268Z,0
2018-01-30T01:28:50.963Z,0
2018-01-30T01:30:00.455Z,0
2018-01-30T01:31:09.417Z,0
2018-01-30T01:32:18.641Z,0
2018-01-30T01:33:27.598Z,0
2018-01-30T01:34:36.295Z,0
2018-01-30T01:35:45.254Z,0
2018-01-30T01:36:54.746Z,0
2018-01-30T01:38:03.442Z,0
2018-01-30T01:39:12.402Z,0
2018-01-30T01:40:21.360Z,0
2018-01-30T01:41:30.054Z,0
2018-01-30T01:42:38.747Z,0
2018-01-30T01:43:47.706Z,0
2018-01-30T01:44:56.927Z,0
2018-01-30T01:46:05.622Z,0
2018-01-30T01:47:14.317Z,0
2018-01-30T01:48:23.280Z,0
2018-01-30T01:49:32.502Z,0
2018-01-30T01:50:41.461Z,0
2018-01-30T01:51:50.151Z,0
2018-01-30T01:52:59.113Z,0
2018-01-30T01:54:08.072Z,0
2018-01-30T01:55:17.565Z,0
2018-01-30T01:56:26.788Z,0
2018-01-30T01:57:35.483Z,0
2018-01-30T01:58:44.176Z,0
2018-01-30T01:59:53.403Z,0
2018-01-30T02:01:02.098Z,0
2018-01-30T02:02:11.054Z,0
2018-01-30T02:03:19.754Z,0
2018-01-30T02:04:28.724Z,0
2018-01-30T02:05:37.674Z,0
2018-01-30T02:06:46.629Z,0
2018-01-30T02:07:55.322Z,0
2018-01-30T02:09:04.280Z,0
2018-01-30T02:10:12.971Z,0
2018-01-30T02:11:21.934Z,0
2018-01-30T02:12:31.160Z,0
2018-01-30T02:13:39.854Z,0
2018-01-30T02:14:48.814Z,0
2018-01-30T02:15:57.769Z,0
2018-01-30T02:17:06.464Z,0
2018-01-30T02:18:15.423Z,0
2018-01-30T02:19:24.388Z,0
2018-01-30T02:20:33.346Z,0
2018-01-30T02:21:42.038Z,0
2018-01-30T02:22:51.263Z,0
2018-01-30T02:24:00.487Z,0
2018-01-30T02:25:09.447Z,0
2018-01-30T02:26:18.409Z,0
2018-01-30T02:27:27.102Z,0
2018-01-30T02:28:36.064Z,0
2018-01-30T02:29:44.756Z,0
2018-01-30T02:30:53.709Z,0
2018-01-30T02:32:02.666Z,0
2018-01-30T02:33:11.896Z,0
2018-01-30T02:34:20.585Z,0
2018-01-30T02:35:29.808Z,0
2018-01-30T02:36:39.032Z,0
2018-01-30T02:37:47.991Z,0
2018-01-30T02:38:57.216Z,0
2018-01-30T02:40:06.173Z,0
2018-01-30T02:41:15.667Z,0
2018-01-30T02:42:24.362Z,0
2018-01-30T02:43:33.330Z,0
2018-01-30T02:44:42.032Z,0
2018-01-30T02:45:50.996Z,0
2018-01-30T02:46:59.954Z,0
2018-01-30T02:48:08.649Z,0
2018-01-30T02:49:17.612Z,0
2018-01-30T02:50:26.570Z,0
2018-01-30T02:51:35.539Z,0
2018-01-30T02:52:44.762Z,0
2018-01-30T02:53:53.987Z,0
2018-01-30T02:55:03.209Z,0
2018-01-30T02:56:11.902Z,0
2018-01-30T02:57:21.138Z,0
2018-01-30T02:58:30.367Z,0
2018-01-30T02:59:39.066Z,0
2018-01-30T03:00:48.022Z,0
2018-01-30T03:01:56.979Z,0
2018-01-30T03:03:05.940Z,0
2018-01-30T03:04:15.172Z,0
2018-01-30T03:05:23.866Z,0
2018-01-30T03:06:32.560Z,0
2018-01-30T03:07:47.526Z,0
2018-01-30T03:08:56.228Z,0
2018-01-30T03:10:05.199Z,0
2018-01-30T03:11:14.175Z,0
2018-01-30T03:12:23.149Z,0
2018-01-30T03:13:31.852Z,0
2018-01-30T03:14:41.091Z,0
2018-01-30T03:15:49.795Z,0
2018-01-30T03:16:59.031Z,0
2018-01-30T03:18:08.005Z,0
2018-01-30T03:19:16.708Z,0
2018-01-30T03:20:25.413Z,0
2018-01-30T03:21:34.382Z,0
2018-01-30T03:22:43.085Z,0
2018-01-30T03:23:52.055Z,0
2018-01-30T03:25:01.022Z,0
2018-01-30T03:26:10.528Z,0
2018-01-30T03:27:19.233Z,0
2018-01-30T03:28:28.201Z,0
2018-01-30T03:29:37.437Z,0
2018-01-30T03:30:46.698Z,0
2018-01-30T03:31:55.671Z,0
2018-01-30T03:33:04.373Z,0
2018-01-30T03:34:13.347Z,0
2018-01-30T03:35:22.318Z,0
2018-01-30T03:36:31.020Z,0
2018-01-30T03:37:39.989Z,0
2018-01-30T03:38:49.227Z,0
2018-01-30T03:39:58.197Z,0
2018-01-30T03:41:07.174Z,0
2018-01-30T03:42:16.148Z,0
2018-01-30T03:43:25.384Z,0
2018-01-30T03:44:34.082Z,0
2018-01-30T03:45:43.317Z,0
2018-01-30T03:46:52.821Z,0
2018-01-30T03:48:02.061Z,0
2018-01-30T03:49:11.027Z,0
2018-01-30T03:50:19.997Z,0
2018-01-30T03:51:29.236Z,0
2018-01-30T03:52:38.204Z,0
2018-01-30T03:53:47.706Z,0
2018-01-30T03:54:56.949Z,0
2018-01-30T03:56:05.648Z,0
2018-01-30T03:57:14.616Z,0
2018-01-30T03:58:23.322Z,0
2018-01-30T03:59:32.291Z,0
2018-01-30T04:00:41.261Z,0
2018-01-30T04:01:49.962Z,0
2018-01-30T04:02:58.935Z,0
2018-01-30T04:04:07.639Z,0
2018-01-30T04:05:16.346Z,0
2018-01-30T04:06:25.048Z,0
2018-01-30T04:07:34.019Z,0
2018-01-30T04:08:43.255Z,0
2018-01-30T04:09:51.958Z,0
2018-01-30T04:11:00.934Z,0
2018-01-30T04:12:09.907Z,0
2018-01-30T04:13:18.876Z,0
2018-01-30T04:14:28.111Z,0
2018-01-30T04:15:37.351Z,0
2018-01-30T04:16:46.057Z,0
2018-01-30T04:17:55.297Z,0
2018-01-30T04:19:04.270Z,0
2018-01-30T04:20:13.509Z,0
2018-01-30T04:21:22.479Z,0
2018-01-30T04:22:31.448Z,0
2018-01-30T04:23:40.416Z,0
2018-01-30T04:24:49.402Z,0
2018-01-30T04:25:58.908Z,0
2018-01-30T04:27:07.883Z,0
2018-01-30T04:28:16.584Z,0
2018-01-30T04:29:25.823Z,0
2018-01-30T04:30:35.058Z,0
2018-01-30T04:31:44.569Z,0
2018-01-30T04:32:53.547Z,0
2018-01-30T04:34:02.788Z,0
2018-01-30T04:35:11.491Z,0
2018-01-30T04:36:20.196Z,0
2018-01-30T04:37:29.167Z,0
2018-01-30T04:38:38.139Z,0
2018-01-30T04:39:47.116Z,0
2018-01-30T04:40:56.355Z,0
2018-01-30T04:42:05.059Z,0
2018-01-30T04:43:13.764Z,0
2018-01-30T04:44:22.735Z,0
2018-01-30T04:45:31.706Z,0
2018-01-30T04:46:40.410Z,0
2018-01-30T04:47:49.649Z,0
2018-01-30T04:48:58.887Z,0
2018-01-30T04:50:07.593Z,0
2018-01-30T04:51:16.564Z,0
2018-01-30T04:52:25.532Z,0
2018-01-30T04:53:34.767Z,0
2018-01-30T04:54:43.739Z,0
2018-01-30T04:55:52.716Z,0
2018-01-30T04:57:01.683Z,0
2018-01-30T04:58:10.388Z,0
2018-01-30T04:59:19.360Z,0
2018-01-30T05:00:28.328Z,0
2018-01-30T05:01:37.305Z,0
2018-01-30T05:02:46.551Z,0
2018-01-30T05:03:55.791Z,0
2018-01-30T05:05:04.495Z,0
2018-01-30T05:06:13.731Z,0
2018-01-30T05:07:22.972Z,0
2018-01-30T05:08:31.942Z,0
2018-01-30T05:09:40.643Z,0
2018-01-30T05:10:49.886Z,0
2018-01-30T05:11:59.392Z,0
2018-01-30T05:13:08.368Z,0
2018-01-30T05:14:17.068Z,0
2018-01-30T05:15:26.084Z,0
2018-01-30T05:16:34.786Z,0
2018-01-30T05:17:43.762Z,0
2018-01-30T05:18:52.735Z,0
2018-01-30T05:20:01.707Z,0
2018-01-30T05:21:10.680Z,0
2018-01-30T05:22:19.650Z,0
2018-01-30T05:23:28.624Z,0
2018-01-30T05:24:37.329Z,0
2018-01-30T05:25:46.026Z,0
2018-01-30T05:26:54.730Z,0
2018-01-30T05:28:03.701Z,0
2018-01-30T05:29:12.935Z,0
2018-01-30T05:30:21.913Z,0
2018-01-30T05:31:30.881Z,0
2018-01-30T05:32:39.583Z,0
2018-01-30T05:33:48.557Z,0
2018-01-30T05:34:57.525Z,0
2018-01-30T05:36:06.764Z,0
2018-01-30T05:37:15.466Z,0
2018-01-30T05:38:24.434Z,0
2018-01-30T05:39:33.403Z,0
2018-01-30T05:40:42.908Z,0
2018-01-30T05:41:51.880Z,0
2018-01-30T05:43:00.850Z,0
2018-01-30T05:44:09.551Z,0
2018-01-30T05:45:18.254Z,0
2018-01-30T05:46:27.809Z,0
2018-01-30T05:47:36.783Z,0
2018-01-30T05:48:45.487Z,0
2018-01-30T05:49:54.734Z,0
2018-01-30T05:51:03.971Z,0
2018-01-30T05:52:13.479Z,0
2018-01-30T05:53:22.450Z,0
2018-01-30T05:54:31.421Z,0
2018-01-30T05:55:40.409Z,0
2018-01-30T05:56:49.358Z,0
2018-01-30T05:57:58.597Z,0
2018-01-30T05:59:07.563Z,0
2018-01-30T06:00:16.264Z,0
2018-01-30T06:01:25.234Z,0
2018-01-30T06:02:33.939Z,0
2018-01-30T06:03:42.647Z,0
2018-01-30T06:04:51.619Z,0
2018-01-30T06:06:00.590Z,0
2018-01-30T06:07:09.561Z,0
2018-01-30T06:08:18.263Z,0
2018-01-30T06:09:26.965Z,0
2018-01-30T06:10:36.206Z,0
2018-01-30T06:11:45.447Z,0
2018-01-30T06:12:54.426Z,0
2018-01-30T06:14:03.395Z,0
2018-01-30T06:15:12.100Z,0
2018-01-30T06:16:21.334Z,0
2018-01-30T06:17:31.164Z,0
2018-01-30T06:18:40.705Z,0
2018-01-30T06:19:49.679Z,0
2018-01-30T06:20:59.182Z,0
2018-01-30T06:22:08.151Z,0
2018-01-30T06:23:17.388Z,0
2018-01-30T06:24:26.095Z,0
2018-01-30T06:25:35.062Z,0
2018-01-30T06:26:43.765Z,0
2018-01-30T06:27:52.734Z,0
2018-01-30T06:29:02.245Z,0
2018-01-30T06:30:11.484Z,0
2018-01-30T06:31:20.721Z,0
2018-01-30T06:32:29.691Z,0
2018-01-30T06:33:38.395Z,0
2018-01-30T06:34:47.367Z,0
2018-01-30T06:35:56.337Z,0
2018-01-30T06:37:05.310Z,0
2018-01-30T06:38:14.565Z,0
2018-01-30T06:39:23.266Z,0
2018-01-30T06:40:32.509Z,0
2018-01-30T06:41:41.213Z,0
2018-01-30T06:42:50.185Z,0
2018-01-30T06:43:59.694Z,0
2018-01-30T06:45:08.397Z,0
2018-01-30T06:46:17.096Z,0
2018-01-30T06:47:25.800Z,0
2018-01-30T06:48:34.507Z,0
2018-01-30T06:49:43.212Z,0
2018-01-30T06:50:51.919Z,0
2018-01-30T06:52:01.159Z,0
2018-01-30T06:53:10.400Z,0
2018-01-30T06:54:19.637Z,0
2018-01-30T06:55:28.342Z,0
2018-01-30T06:56:37.589Z,0
2018-01-30T06:57:46.559Z,0
2018-01-30T06:58:55.528Z,0
2018-01-30T07:00:04.772Z,0
2018-01-30T07:01:14.010Z,0
2018-01-30T07:02:22.977Z,0
2018-01-30T07:03:31.948Z,0
2018-01-30T07:04:40.920Z,0
2018-01-30T07:05:49.622Z,0
2018-01-30T07:06:59.131Z,0
2018-01-30T07:08:08.107Z,0
2018-01-30T07:09:17.075Z,0
2018-01-30T07:10:26.046Z,0
2018-01-30T07:11:34.756Z,0
2018-01-30T07:12:43.451Z,0
2018-01-30T07:13:52.425Z,0
2018-01-30T07:15:01.392Z,0
2018-01-30T07:16:10.359Z,0
2018-01-30T07:17:19.061Z,0
2018-01-30T07:18:27.766Z,0
2018-01-30T07:19:36.738Z,0
2018-01-30T07:20:46.242Z,0
2018-01-30T07:21:55.483Z,0
2018-01-30T07:23:04.450Z,0
2018-01-30T07:24:13.420Z,0
2018-01-30T07:25:22.660Z,0
2018-01-30T07:26:31.632Z,0
2018-01-30T07:27:40.882Z,0
2018-01-30T07:28:50.391Z,0
2018-01-30T07:29:59.362Z,0
2018-01-30T07:31:08.064Z,0
2018-01-30T07:32:17.038Z,0
2018-01-30T07:33:26.006Z,0
2018-01-30T07:34:34.976Z,0
2018-01-30T07:35:44.483Z,0
2018-01-30T07:36:53.453Z,0
2018-01-30T07:38:02.424Z,0
2018-01-30T07:39:11.680Z,0
2018-01-30T07:40:20.649Z,0
2018-01-30T07:41:29.352Z,0
2018-01-30T07:42:38.055Z,0
2018-01-30T07:43:47.027Z,0
2018-01-30T07:44:55.728Z,0
2018-01-30T07:46:04.738Z,0
2018-01-30T07:47:13.711Z,0
2018-01-30T07:48:22.682Z,0
2018-01-30T07:49:31.920Z,4
2018-01-30T07:50:41.150Z,4
2018-01-30T07:51:49.904Z,4
2018-01-30T07:52:58.881Z,0
2018-01-30T07:54:07.641Z,0
2018-01-30T07:55:16.561Z,0
2018-01-30T07:56:25.265Z,0
2018-01-30T07:57:33.972Z,0
2018-01-30T07:58:43.205Z,0
2018-01-30T07:59:52.182Z,0
2018-01-30T08:01:01.422Z,4
2018-01-30T08:02:10.392Z,0
2018-01-30T08:03:19.093Z,4
2018-01-30T08:04:28.334Z,4
2018-01-30T08:05:37.036Z,4
2018-01-30T08:06:45.737Z,4
2018-01-30T08:07:54.707Z,4
2018-01-30T08:09:04.009Z,4
2018-01-30T08:10:12.693Z,4
2018-01-30T08:11:21.624Z,4
2018-01-30T08:12:30.594Z,4
2018-01-30T08:13:39.571Z,4
2018-01-30T08:14:48.808Z,4
2018-01-30T08:15:57.511Z,4
2018-01-30T08:17:06.483Z,4
2018-01-30T08:18:15.719Z,4
2018-01-30T08:19:24.690Z,4
2018-01-30T08:20:33.661Z,4
2018-01-30T08:21:42.634Z,4
2018-01-30T08:22:51.610Z,0
2018-01-30T08:24:00.577Z,0
2018-01-30T08:25:09.281Z,0
2018-01-30T08:26:18.522Z,4
2018-01-30T08:27:27.233Z,4
2018-01-30T08:28:36.736Z,4
2018-01-30T08:29:45.708Z,0
2018-01-30T08:30:54.682Z,0
2018-01-30T08:32:03.918Z,4
2018-01-30T08:33:12.890Z,0
2018-01-30T08:34:21.860Z,4
2018-01-30T08:35:30.831Z,4
2018-01-30T08:36:40.068Z,4
2018-01-30T08:37:49.309Z,4
2018-01-30T08:38:58.011Z,0
2018-01-30T08:40:06.987Z,4
2018-01-30T08:41:15.690Z,0
2018-01-30T08:42:24.661Z,0
2018-01-30T08:43:33.368Z,4
2018-01-30T08:44:42.346Z,0
2018-01-30T08:45:51.317Z,0
2018-01-30T08:47:00.559Z,0
2018-01-30T08:48:09.798Z,4
2018-01-30T08:49:19.037Z,4
2018-01-30T08:50:28.010Z,0
2018-01-30T08:51:37.248Z,0
2018-01-30T08:52:45.951Z,0
2018-01-30T08:53:54.931Z,4
2018-01-30T08:55:03.636Z,4
2018-01-30T08:56:12.607Z,4
2018-01-30T08:57:21.575Z,0
2018-01-30T08:58:30.548Z,0
2018-01-30T08:59:39.252Z,0
2018-01-30T09:00:48.226Z,4
2018-01-30T09:01:56.933Z,4
2018-01-30T09:03:06.714Z,4
2018-01-30T09:04:15.951Z,4
2018-01-30T09:05:24.654Z,4
2018-01-30T09:06:33.624Z,4
2018-01-30T09:07:42.593Z,4
2018-01-30T09:08:51.295Z,4
2018-01-30T09:10:00.801Z,4
2018-01-30T09:11:09.772Z,4
2018-01-30T09:12:19.010Z,0
2018-01-30T09:13:27.982Z,0
2018-01-30T09:14:36.953Z,0
2018-01-30T09:15:46.174Z,4
2018-01-30T09:16:54.864Z,4
2018-01-30T09:18:03.557Z,4
2018-01-30T09:19:12.513Z,4
2018-01-30T09:20:21.206Z,4
2018-01-30T09:21:30.429Z,8
2018-01-30T09:22:39.122Z,4
2018-01-30T09:23:48.076Z,4
2018-01-30T09:24:57.029Z,4
2018-01-30T09:26:06.253Z,4
2018-01-30T09:27:14.944Z,4
2018-01-30T09:28:24.164Z,4
2018-01-30T09:29:33.120Z,4
2018-01-30T09:30:41.810Z,4
2018-01-30T09:31:51.046Z,4
2018-01-30T09:33:00.284Z,4
2018-01-30T09:34:09.790Z,4
2018-01-30T09:35:19.301Z,4
2018-01-30T09:36:28.273Z,4
2018-01-30T09:37:37.246Z,4
2018-01-30T09:38:46.220Z,8
2018-01-30T09:39:54.925Z,4
2018-01-30T09:41:03.628Z,4
2018-01-30T09:42:12.332Z,4
2018-01-30T09:43:21.833Z,8
2018-01-30T09:44:31.073Z,8
2018-01-30T09:45:40.047Z,8
2018-01-30T09:46:48.751Z,4
2018-01-30T09:47:57.454Z,4
2018-01-30T09:49:06.710Z,8
2018-01-30T09:50:15.680Z,8
2018-01-30T09:51:24.922Z,4
2018-01-30T09:52:34.435Z,8
2018-01-30T09:53:43.676Z,4
2018-01-30T09:54:52.641Z,8
2018-01-30T09:56:01.609Z,8
2018-01-30T09:57:10.846Z,8
2018-01-30T09:58:20.090Z,8
2018-01-30T09:59:29.333Z,8
2018-01-30T10:00:38.302Z,4
2018-01-30T10:01:47.008Z,8
2018-01-30T10:02:55.713Z,8
2018-01-30T10:04:04.952Z,8
2018-01-30T10:05:14.194Z,4
2018-01-30T10:06:23.165Z,4
2018-01-30T10:07:32.405Z,8
2018-01-30T10:08:41.108Z,8
2018-01-30T10:09:49.812Z,4
2018-01-30T10:10:58.797Z,4
2018-01-30T10:12:07.759Z,8
2018-01-30T10:13:16.732Z,8
2018-01-30T10:14:25.703Z,8
2018-01-30T10:15:34.408Z,8
2018-01-30T10:16:43.111Z,4
2018-01-30T10:17:51.813Z,8
2018-01-30T10:19:00.782Z,8
2018-01-30T10:20:10.621Z,8
2018-01-30T10:21:19.597Z,8
2018-01-30T10:22:28.836Z,8
2018-01-30T10:23:37.807Z,8
2018-01-30T10:24:47.050Z,8
2018-01-30T10:25:56.046Z,8
2018-01-30T10:27:04.996Z,8
2018-01-30T10:28:13.699Z,12
2018-01-30T10:29:22.671Z,12
2018-01-30T10:30:31.906Z,8
2018-01-30T10:31:40.877Z,16
2018-01-30T10:32:49.844Z,12
2018-01-30T10:33:58.813Z,28
2018-01-30T10:35:08.056Z,44
2018-01-30T10:36:17.296Z,52
2018-01-30T10:37:26.804Z,56
2018-01-30T10:38:36.052Z,60
2018-01-30T10:39:44.759Z,32
2018-01-30T10:40:53.461Z,52
2018-01-30T10:42:02.432Z,44
2018-01-30T10:43:11.669Z,40
2018-01-30T10:44:20.640Z,36
2018-01-30T10:45:29.931Z,32
2018-01-30T10:46:38.634Z,40
2018-01-30T10:47:47.338Z,36
2018-01-30T10:48:56.309Z,32
2018-01-30T10:50:05.038Z,28
2018-01-30T10:51:13.986Z,24
2018-01-30T10:52:22.691Z,20
2018-01-30T10:53:31.662Z,16
2018-01-30T10:54:40.636Z,20
2018-01-30T10:55:49.607Z,16
2018-01-30T10:56:58.582Z,20
2018-01-30T10:58:07.818Z,20
2018-01-30T10:59:16.790Z,20
2018-01-30T11:00:25.495Z,20
2018-01-30T11:01:34.514Z,20
2018-01-30T11:02:43.752Z,20
2018-01-30T11:03:52.986Z,16
2018-01-30T11:05:01.958Z,16
2018-01-30T11:06:10.931Z,16
2018-01-30T11:07:19.903Z,16
2018-01-30T11:08:28.604Z,20
2018-01-30T11:09:37.925Z,20
2018-01-30T11:10:46.871Z,24
2018-01-30T11:11:55.838Z,28
2018-01-30T11:13:05.346Z,32
2018-01-30T11:14:14.319Z,40
2018-01-30T11:15:23.557Z,36
2018-01-30T11:16:32.260Z,28
2018-01-30T11:17:41.501Z,32
2018-01-30T11:18:50.204Z,20
2018-01-30T11:19:59.441Z,12
2018-01-30T11:21:08.679Z,32
2018-01-30T11:22:17.388Z,8
2018-01-30T11:23:26.624Z,8
2018-01-30T11:24:35.595Z,36
2018-01-30T11:25:44.830Z,32
2018-01-30T11:26:53.804Z,36
2018-01-30T11:28:02.774Z,56
2018-01-30T11:29:11.747Z,56
2018-01-30T11:30:20.451Z,60
2018-01-30T11:31:29.422Z,68
2018-01-30T11:32:38.128Z,56
2018-01-30T11:33:46.832Z,56
2018-01-30T11:34:55.799Z,48
2018-01-30T11:36:05.035Z,48
2018-01-30T11:37:14.009Z,60
2018-01-30T11:38:23.253Z,60
2018-01-30T11:39:31.949Z,60
2018-01-30T11:40:40.918Z,52
2018-01-30T11:41:49.888Z,48
2018-01-30T11:42:59.122Z,36
2018-01-30T11:44:08.367Z,36
2018-01-30T11:45:17.070Z,36
2018-01-30T11:46:26.048Z,64
2018-01-30T11:47:35.282Z,60
2018-01-30T11:48:44.256Z,56
2018-01-30T11:49:53.228Z,72
2018-01-30T11:51:01.935Z,64
2018-01-30T11:52:11.453Z,68
2018-01-30T11:53:20.460Z,64
2018-01-30T11:54:29.424Z,36
2018-01-30T11:55:38.130Z,32
2018-01-30T11:56:47.097Z,28
2018-01-30T11:57:55.805Z,36
2018-01-30T11:59:04.784Z,48
2018-01-30T12:00:14.285Z,48
2018-01-30T12:01:23.525Z,76
2018-01-30T12:02:32.498Z,104
2018-01-30T12:03:41.469Z,100
2018-01-30T12:04:50.437Z,104
2018-01-30T12:05:59.409Z,104
2018-01-30T12:07:08.386Z,108
2018-01-30T12:08:17.357Z,112
2018-01-30T12:09:26.058Z,116
2018-01-30T12:10:34.762Z,116
2018-01-30T12:11:44.004Z,124
2018-01-30T12:12:52.709Z,120
2018-01-30T12:14:01.412Z,120
2018-01-30T12:15:10.381Z,120
2018-01-30T12:16:19.615Z,120
2018-01-30T12:17:28.585Z,104
2018-01-30T12:18:37.567Z,64
2018-01-30T12:19:46.537Z,96
2018-01-30T12:20:56.038Z,80
2018-01-30T12:22:05.274Z,76
2018-01-30T12:23:14.250Z,68
2018-01-30T12:24:23.751Z,56
2018-01-30T12:25:32.986Z,52
2018-01-30T12:26:41.960Z,16
2018-01-30T12:27:50.928Z,16
2018-01-30T12:29:00.432Z,24
2018-01-30T12:30:09.403Z,48
2018-01-30T12:31:18.375Z,56
2018-01-30T12:32:27.078Z,68
2018-01-30T12:33:36.054Z,68
2018-01-30T12:34:45.027Z,64
2018-01-30T12:35:53.995Z,48
2018-01-30T12:37:03.239Z,40
2018-01-30T12:38:12.218Z,32
2018-01-30T12:39:20.920Z,40
2018-01-30T12:40:29.893Z,48
2018-01-30T12:41:38.599Z,56
2018-01-30T12:42:48.406Z,60
2018-01-30T12:43:57.388Z,32
2018-01-30T12:45:06.094Z,16
2018-01-30T12:46:15.331Z,16
2018-01-30T12:47:24.613Z,16
2018-01-30T12:48:33.848Z,12
2018-01-30T12:49:42.551Z,12
2018-01-30T12:50:52.058Z,8
2018-01-30T12:52:01.298Z,4
2018-01-30T12:53:10.002Z,12
2018-01-30T12:54:18.706Z,12
2018-01-30T12:55:27.409Z,20
2018-01-30T12:56:36.382Z,28
2018-01-30T12:57:45.900Z,12
2018-01-30T12:58:54.869Z,12
2018-01-30T13:00:04.111Z,12
2018-01-30T13:01:12.812Z,28
2018-01-30T13:02:22.326Z,32
2018-01-30T13:03:31.568Z,36
2018-01-30T13:04:40.807Z,44
2018-01-30T13:05:50.047Z,24
2018-01-30T13:06:58.752Z,28
2018-01-30T13:08:07.993Z,24
2018-01-30T13:09:17.496Z,8
2018-01-30T13:10:26.475Z,16
2018-01-30T13:11:35.714Z,12
2018-01-30T13:12:45.220Z,24
2018-01-30T13:13:53.922Z,24
2018-01-30T13:15:03.163Z,12
2018-01-30T13:16:12.134Z,8
2018-01-30T13:17:20.840Z,8
2018-01-30T13:18:29.544Z,8
2018-01-30T13:19:39.052Z,8
2018-01-30T13:20:48.026Z,16
2018-01-30T13:21:57.267Z,28
2018-01-30T13:23:06.511Z,28
2018-01-30T13:24:15.482Z,28
2018-01-30T13:25:24.452Z,28
2018-01-30T13:26:33.422Z,32
2018-01-30T13:27:42.127Z,28
2018-01-30T13:28:50.833Z,32
2018-01-30T13:29:59.803Z,28
2018-01-30T13:31:09.048Z,28
2018-01-30T13:32:18.284Z,28
2018-01-30T13:33:26.988Z,28
2018-01-30T13:34:35.959Z,12
2018-01-30T13:35:44.931Z,20
2018-01-30T13:36:54.227Z,4
2018-01-30T13:38:03.204Z,4
2018-01-30T13:39:12.180Z,8
2018-01-30T13:40:20.886Z,8
2018-01-30T13:41:29.590Z,16
2018-01-30T13:42:38.560Z,20
2018-01-30T13:43:47.796Z,24
2018-01-30T13:44:56.769Z,24
2018-01-30T13:46:05.739Z,24
2018-01-30T13:47:14.710Z,24
2018-01-30T13:48:23.681Z,16
2018-01-30T13:49:32.652Z,16
2018-01-30T13:50:41.887Z,12
2018-01-30T13:51:51.131Z,8
2018-01-30T13:52:59.837Z,16
2018-01-30T13:54:08.806Z,12
2018-01-30T13:55:17.784Z,12
2018-01-30T13:56:26.755Z,16
2018-01-30T13:57:35.464Z,12
2018-01-30T13:58:44.168Z,8
2018-01-30T13:59:53.141Z,8
2018-01-30T14:01:02.114Z,12
2018-01-30T14:02:11.618Z,12
2018-01-30T14:03:20.316Z,16
2018-01-30T14:04:29.284Z,12
2018-01-30T14:05:38.254Z,16
2018-01-30T14:06:47.493Z,8
2018-01-30T14:07:56.465Z,8
2018-01-30T14:09:05.179Z,8
2018-01-30T14:10:14.145Z,12
2018-01-30T14:11:22.849Z,12
2018-01-30T14:12:32.090Z,8
2018-01-30T14:13:41.064Z,8
2018-01-30T14:14:50.358Z,4
2018-01-30T14:15:59.331Z,8
2018-01-30T14:17:08.841Z,8
2018-01-30T14:18:17.816Z,8
2018-01-30T14:19:26.789Z,8
2018-01-30T14:20:35.493Z,8
2018-01-30T14:21:44.496Z,8
2018-01-30T14:22:53.469Z,8
2018-01-30T14:24:02.439Z,8
2018-01-30T14:25:11.410Z,12
2018-01-30T14:26:20.379Z,12
2018-01-30T14:27:29.615Z,8
2018-01-30T14:28:38.585Z,8
2018-01-30T14:29:47.553Z,8
2018-01-30T14:30:56.795Z,12
2018-01-30T14:32:05.502Z,8
2018-01-30T14:33:15.009Z,8
2018-01-30T14:34:23.710Z,8
2018-01-30T14:35:32.414Z,8
2018-01-30T14:36:41.385Z,8
2018-01-30T14:37:50.091Z,8
2018-01-30T14:38:59.064Z,4
2018-01-30T14:40:08.837Z,4
2018-01-30T14:41:18.076Z,4
2018-01-30T14:42:27.046Z,4
2018-01-30T14:43:36.016Z,4
2018-01-30T14:44:44.986Z,4
2018-01-30T14:45:53.957Z,4
2018-01-30T14:47:02.927Z,4
2018-01-30T14:48:11.631Z,4
2018-01-30T14:49:20.870Z,4
2018-01-30T14:50:29.837Z,4
2018-01-30T14:51:39.078Z,4
2018-01-30T14:52:48.313Z,4
2018-01-30T14:53:57.558Z,4
2018-01-30T14:55:06.797Z,4
2018-01-30T14:56:15.767Z,0
2018-01-30T14:57:24.809Z,4
2018-01-30T14:58:33.981Z,4
2018-01-30T14:59:42.689Z,0
2018-01-30T15:00:51.963Z,4
2018-01-30T15:02:00.903Z,4
2018-01-30T15:03:10.142Z,4
2018-01-30T15:04:18.845Z,4
2018-01-30T15:05:28.082Z,4
2018-01-30T15:06:37.320Z,4
2018-01-30T15:07:46.025Z,4
2018-01-30T15:08:54.997Z,0
2018-01-30T15:10:04.773Z,0
2018-01-30T15:11:13.746Z,0
2018-01-30T15:12:23.257Z,0
2018-01-30T15:13:31.967Z,0
2018-01-30T15:14:40.941Z,0
2018-01-30T15:15:49.911Z,0
2018-01-30T15:16:58.884Z,0
2018-01-30T15:18:08.122Z,0
2018-01-30T15:19:17.095Z,0
2018-01-30T15:20:26.064Z,0
2018-01-30T15:21:35.584Z,0
2018-01-30T15:22:44.288Z,0
2018-01-30T15:23:52.989Z,0
2018-01-30T15:25:02.013Z,0
2018-01-30T15:26:10.664Z,0
2018-01-30T15:27:19.643Z,0
2018-01-30T15:28:28.614Z,0
2018-01-30T15:29:37.319Z,0
2018-01-30T15:30:46.288Z,0
2018-01-30T15:31:54.992Z,0
2018-01-30T15:33:03.960Z,0
2018-01-30T15:34:13.195Z,0
2018-01-30T15:35:21.903Z,0
2018-01-30T15:36:30.605Z,0
2018-01-30T15:37:40.108Z,0
2018-01-30T15:38:49.078Z,0
2018-01-30T15:39:58.052Z,0
2018-01-30T15:41:07.023Z,0
2018-01-30T15:42:16.266Z,0
2018-01-30T15:43:25.507Z,4
2018-01-30T15:44:34.478Z,0
2018-01-30T15:45:43.180Z,4
2018-01-30T15:46:52.416Z,4
2018-01-30T15:48:01.391Z,8
2018-01-30T15:49:10.630Z,4
2018-01-30T15:50:19.336Z,0
2018-01-30T15:51:28.042Z,0
2018-01-30T15:52:37.548Z,0
2018-01-30T15:53:46.249Z,0
2018-01-30T15:54:55.222Z,0
2018-01-30T15:56:04.497Z,0
2018-01-30T15:57:13.427Z,0
2018-01-30T15:58:22.926Z,0
2018-01-30T15:59:31.907Z,0
2018-01-30T16:00:41.145Z,0
2018-01-30T16:01:50.112Z,0
2018-01-30T16:02:58.811Z,0
2018-01-30T16:04:07.515Z,0
2018-01-30T16:05:17.132Z,0
2018-01-30T16:06:26.367Z,0
2018-01-30T16:07:35.609Z,0
2018-01-30T16:08:44.582Z,0
2018-01-30T16:09:53.551Z,0
2018-01-30T16:11:02.254Z,0
2018-01-30T16:12:11.305Z,0
2018-01-30T16:13:20.582Z,0
2018-01-30T16:14:29.822Z,0
2018-01-30T16:15:38.791Z,0
2018-01-30T16:16:47.490Z,0
2018-01-30T16:17:56.464Z,0
2018-01-30T16:19:05.168Z,0
2018-01-30T16:20:13.871Z,0
2018-01-30T16:21:23.374Z,0
2018-01-30T16:22:32.077Z,0
2018-01-30T16:23:40.784Z,0
2018-01-30T16:24:50.062Z,0
2018-01-30T16:25:59.039Z,0
2018-01-30T16:27:08.015Z,0
2018-01-30T16:28:17.253Z,0
2018-01-30T16:29:26.223Z,0
2018-01-30T16:30:35.466Z,0
2018-01-30T16:31:44.709Z,0
2018-01-30T16:32:53.954Z,0
2018-01-30T16:34:02.651Z,0
2018-01-30T16:35:11.885Z,0
2018-01-30T16:36:21.048Z,0
2018-01-30T16:37:29.921Z,0
2018-01-30T16:38:39.222Z,0
2018-01-30T16:39:48.512Z,4
2018-01-30T16:40:57.509Z,8
2018-01-30T16:42:06.659Z,0
2018-01-30T16:43:15.469Z,0
2018-01-30T16:44:25.390Z,0
2018-01-30T16:45:34.156Z,0
2018-01-30T16:46:42.908Z,0
2018-01-30T16:47:52.229Z,0
2018-01-30T16:49:00.982Z,0
2018-01-30T16:50:10.021Z,0
2018-01-30T16:51:18.776Z,0
2018-01-30T16:52:27.505Z,0